VBV021 EHRD-EHLE
Flight info
| Callsign | VBV021 |
|---|---|
| Flight time | 0h 28m |
| Altitude | 1500 |
| Route | PAM DCT UPLOS |
| Aircraft | C172/L-SFG/C |
Departure
| Time | 2026-04-26 14:13 |
|---|---|
| Airport | Rotterdam The Hague Airport (EHRD) |
Arrival
| Time | 2026-04-26 14:42 |
|---|---|
| Airport | Lelystad Airport (EHLE) |
| Time | Latitude | Longitude | Altitude | Speed | Heading |
|---|---|---|---|---|---|
| 2026-04-26 13:51 | 51.95119 | 4.43478 | -11 ft | 0 kts | 327° |
| 2026-04-26 14:02 | 51.95136 | 4.43463 | -11 ft | 6 kts | 336° |
| 2026-04-26 14:02 | 51.95163 | 4.43488 | -11 ft | 6 kts | 56° |
| 2026-04-26 14:02 | 51.95191 | 4.43543 | -11 ft | 5 kts | 42° |
| 2026-04-26 14:03 | 51.95211 | 4.43551 | -11 ft | 0 kts | 333° |
| 2026-04-26 14:03 | 51.95243 | 4.43536 | -11 ft | 8 kts | 341° |
| 2026-04-26 14:03 | 51.95268 | 4.43479 | -10 ft | 6 kts | 269° |
| 2026-04-26 14:03 | 51.95268 | 4.43443 | -10 ft | 8 kts | 250° |
| 2026-04-26 14:04 | 51.95236 | 4.43374 | -10 ft | 7 kts | 230° |
| 2026-04-26 14:04 | 51.95208 | 4.43317 | -10 ft | 6 kts | 231° |
| 2026-04-26 14:04 | 51.95185 | 4.43270 | -10 ft | 5 kts | 233° |
| 2026-04-26 14:04 | 51.95168 | 4.43232 | -11 ft | 4 kts | 232° |
| 2026-04-26 14:05 | 51.95150 | 4.43177 | -10 ft | 8 kts | 256° |
| 2026-04-26 14:05 | 51.95164 | 4.43106 | -10 ft | 6 kts | 323° |
| 2026-04-26 14:05 | 51.95193 | 4.43094 | -10 ft | 0 kts | 8° |
| 2026-04-26 14:08 | 51.95215 | 4.43099 | -10 ft | 6 kts | 4° |
| 2026-04-26 14:08 | 51.95277 | 4.43105 | -10 ft | 9 kts | 6° |
| 2026-04-26 14:08 | 51.95327 | 4.43130 | -10 ft | 6 kts | 33° |
| 2026-04-26 14:08 | 51.95342 | 4.43156 | -10 ft | 0 kts | 51° |
| 2026-04-26 14:12 | 51.95347 | 4.43166 | -10 ft | 11 kts | 53° |
| 2026-04-26 14:12 | 51.95489 | 4.43528 | -10 ft | 62 kts | 56° |
| 2026-04-26 14:13 | 51.96108 | 4.45144 | 129 ft | 99 kts | 61° |
| 2026-04-26 14:13 | 51.96427 | 4.46165 | 231 ft | 101 kts | 62° |
| 2026-04-26 14:13 | 51.96732 | 4.46915 | 786 ft | 55 kts | 46° |
| 2026-04-26 14:14 | 51.97130 | 4.47479 | 693 ft | 100 kts | 40° |
| 2026-04-26 14:14 | 51.97721 | 4.48176 | 766 ft | 106 kts | 34° |
| 2026-04-26 14:14 | 51.98173 | 4.49126 | 820 ft | 111 kts | 62° |
| 2026-04-26 14:14 | 51.98543 | 4.50252 | 871 ft | 114 kts | 51° |
| 2026-04-26 14:15 | 51.99091 | 4.51144 | 948 ft | 111 kts | 42° |
| 2026-04-26 14:15 | 51.99641 | 4.52021 | 1032 ft | 111 kts | 43° |
| 2026-04-26 14:15 | 52.00202 | 4.52901 | 1097 ft | 110 kts | 43° |
| 2026-04-26 14:15 | 52.00756 | 4.53758 | 1172 ft | 110 kts | 43° |
| 2026-04-26 14:16 | 52.01311 | 4.54585 | 1248 ft | 107 kts | 43° |
| 2026-04-26 14:16 | 52.01860 | 4.55405 | 1333 ft | 109 kts | 43° |
| 2026-04-26 14:16 | 52.02434 | 4.56250 | 1408 ft | 113 kts | 43° |
| 2026-04-26 14:16 | 52.03000 | 4.57158 | 1488 ft | 116 kts | 45° |
| 2026-04-26 14:17 | 52.03587 | 4.58109 | 1497 ft | 121 kts | 45° |
| 2026-04-26 14:17 | 52.04173 | 4.59077 | 1508 ft | 120 kts | 45° |
| 2026-04-26 14:17 | 52.04760 | 4.60041 | 1508 ft | 120 kts | 45° |
| 2026-04-26 14:17 | 52.05349 | 4.61006 | 1496 ft | 118 kts | 45° |
| 2026-04-26 14:18 | 52.05916 | 4.61926 | 1496 ft | 115 kts | 45° |
| 2026-04-26 14:18 | 52.06495 | 4.62860 | 1500 ft | 118 kts | 45° |
| 2026-04-26 14:18 | 52.07081 | 4.63803 | 1501 ft | 121 kts | 45° |
| 2026-04-26 14:18 | 52.07666 | 4.64751 | 1502 ft | 116 kts | 46° |
| 2026-04-26 14:19 | 52.08239 | 4.65689 | 1496 ft | 117 kts | 45° |
| 2026-04-26 14:19 | 52.08809 | 4.66632 | 1491 ft | 116 kts | 46° |
| 2026-04-26 14:19 | 52.09372 | 4.67553 | 1503 ft | 114 kts | 45° |
| 2026-04-26 14:19 | 52.09928 | 4.68469 | 1485 ft | 112 kts | 45° |
| 2026-04-26 14:20 | 52.10467 | 4.69358 | 1490 ft | 110 kts | 45° |
| 2026-04-26 14:20 | 52.11018 | 4.70257 | 1502 ft | 115 kts | 45° |
| 2026-04-26 14:20 | 52.11600 | 4.71194 | 1495 ft | 117 kts | 45° |
| 2026-04-26 14:20 | 52.12175 | 4.72122 | 1493 ft | 116 kts | 45° |
| 2026-04-26 14:21 | 52.12741 | 4.73042 | 1496 ft | 114 kts | 45° |
| 2026-04-26 14:21 | 52.13295 | 4.73935 | 1491 ft | 113 kts | 45° |
| 2026-04-26 14:21 | 52.13844 | 4.74822 | 1491 ft | 111 kts | 45° |
| 2026-04-26 14:21 | 52.14382 | 4.75706 | 1491 ft | 110 kts | 45° |
| 2026-04-26 14:22 | 52.14924 | 4.76594 | 1489 ft | 111 kts | 45° |
| 2026-04-26 14:22 | 52.15288 | 4.77196 | 1495 ft | 110 kts | 45° |
| 2026-04-26 14:22 | 52.15829 | 4.78090 | 1497 ft | 110 kts | 45° |
| 2026-04-26 14:22 | 52.16365 | 4.78978 | 1506 ft | 112 kts | 44° |
| 2026-04-26 14:23 | 52.16910 | 4.79880 | 1495 ft | 110 kts | 46° |
| 2026-04-26 14:23 | 52.17447 | 4.80765 | 1495 ft | 109 kts | 45° |
| 2026-04-26 14:23 | 52.17983 | 4.81639 | 1494 ft | 109 kts | 45° |
| 2026-04-26 14:23 | 52.18525 | 4.82519 | 1499 ft | 112 kts | 45° |
| 2026-04-26 14:24 | 52.19072 | 4.83411 | 1503 ft | 111 kts | 45° |
| 2026-04-26 14:24 | 52.19635 | 4.84335 | 1514 ft | 117 kts | 45° |
| 2026-04-26 14:24 | 52.20216 | 4.85296 | 1505 ft | 120 kts | 45° |
| 2026-04-26 14:24 | 52.20805 | 4.86276 | 1499 ft | 122 kts | 46° |
| 2026-04-26 14:25 | 52.21378 | 4.87237 | 1493 ft | 114 kts | 45° |
| 2026-04-26 14:25 | 52.21912 | 4.88131 | 1488 ft | 106 kts | 45° |
| 2026-04-26 14:25 | 52.22391 | 4.88931 | 1491 ft | 94 kts | 46° |
| 2026-04-26 14:25 | 52.22782 | 4.89594 | 1463 ft | 70 kts | 46° |
| 2026-04-26 14:26 | 52.23101 | 4.90142 | 1300 ft | 67 kts | 46° |
| 2026-04-26 14:26 | 52.23422 | 4.90678 | 1185 ft | 65 kts | 46° |
| 2026-04-26 14:26 | 52.23726 | 4.91192 | 1077 ft | 64 kts | 46° |
| 2026-04-26 14:26 | 52.24056 | 4.91726 | 940 ft | 85 kts | 40° |
| 2026-04-26 14:27 | 52.24352 | 4.92478 | 1122 ft | 68 kts | 74° |
| 2026-04-26 14:27 | 52.24508 | 4.93250 | 1166 ft | 87 kts | 60° |
| 2026-04-26 14:27 | 52.24761 | 4.94006 | 1219 ft | 70 kts | 61° |
| 2026-04-26 14:27 | 52.24950 | 4.94731 | 1071 ft | 68 kts | 65° |
| 2026-04-26 14:28 | 52.25084 | 4.95522 | 963 ft | 69 kts | 73° |
| 2026-04-26 14:28 | 52.25253 | 4.96289 | 1009 ft | 79 kts | 63° |
| 2026-04-26 14:28 | 52.25358 | 4.97138 | 1080 ft | 91 kts | 90° |
| 2026-04-26 14:28 | 52.25365 | 4.98173 | 970 ft | 104 kts | 77° |
| 2026-04-26 14:29 | 52.25574 | 4.99211 | 1202 ft | 94 kts | 70° |
| 2026-04-26 14:29 | 52.25726 | 5.00049 | 1439 ft | 84 kts | 71° |
| 2026-04-26 14:29 | 52.25948 | 5.00986 | 1493 ft | 107 kts | 74° |
| 2026-04-26 14:29 | 52.25951 | 5.02160 | 1396 ft | 128 kts | 91° |
| 2026-04-26 14:30 | 52.25875 | 5.03624 | 1281 ft | 127 kts | 93° |
| 2026-04-26 14:30 | 52.25855 | 5.05052 | 1278 ft | 126 kts | 86° |
| 2026-04-26 14:30 | 52.25904 | 5.06447 | 1236 ft | 120 kts | 83° |
| 2026-04-26 14:30 | 52.25966 | 5.07668 | 1533 ft | 94 kts | 81° |
| 2026-04-26 14:31 | 52.26045 | 5.08966 | 1157 ft | 125 kts | 83° |
| 2026-04-26 14:31 | 52.26093 | 5.10291 | 1226 ft | 106 kts | 84° |
| 2026-04-26 14:31 | 52.26252 | 5.11444 | 1134 ft | 103 kts | 68° |
| 2026-04-26 14:31 | 52.26518 | 5.12511 | 1010 ft | 106 kts | 64° |
| 2026-04-26 14:32 | 52.26868 | 5.13555 | 1108 ft | 86 kts | 50° |
| 2026-04-26 14:32 | 52.27311 | 5.14223 | 1095 ft | 101 kts | 40° |
| 2026-04-26 14:32 | 52.27784 | 5.14929 | 1283 ft | 86 kts | 49° |
| 2026-04-26 14:32 | 52.28023 | 5.15907 | 1214 ft | 99 kts | 57° |
| 2026-04-26 14:33 | 52.28447 | 5.16838 | 1204 ft | 106 kts | 54° |
| 2026-04-26 14:33 | 52.28884 | 5.17827 | 1202 ft | 110 kts | 53° |
| 2026-04-26 14:33 | 52.29320 | 5.18825 | 1209 ft | 106 kts | 53° |
| 2026-04-26 14:33 | 52.29750 | 5.19805 | 1207 ft | 105 kts | 53° |
| 2026-04-26 14:34 | 52.30169 | 5.20778 | 1208 ft | 104 kts | 54° |
| 2026-04-26 14:34 | 52.30590 | 5.21747 | 1205 ft | 104 kts | 53° |
| 2026-04-26 14:34 | 52.31014 | 5.22734 | 1202 ft | 109 kts | 54° |
| 2026-04-26 14:34 | 52.31462 | 5.23738 | 1201 ft | 107 kts | 47° |
| 2026-04-26 14:35 | 52.31958 | 5.24613 | 1193 ft | 103 kts | 46° |
| 2026-04-26 14:35 | 52.32443 | 5.25477 | 1192 ft | 102 kts | 46° |
| 2026-04-26 14:35 | 52.32920 | 5.26321 | 1191 ft | 101 kts | 47° |
| 2026-04-26 14:35 | 52.33394 | 5.27147 | 1206 ft | 102 kts | 46° |
| 2026-04-26 14:36 | 52.33889 | 5.28029 | 1205 ft | 105 kts | 46° |
| 2026-04-26 14:36 | 52.34381 | 5.28901 | 1203 ft | 104 kts | 46° |
| 2026-04-26 14:36 | 52.34869 | 5.29779 | 1201 ft | 104 kts | 46° |
| 2026-04-26 14:36 | 52.35332 | 5.30676 | 1201 ft | 103 kts | 56° |
| 2026-04-26 14:37 | 52.35640 | 5.31741 | 1207 ft | 106 kts | 62° |
| 2026-04-26 14:37 | 52.35960 | 5.32846 | 1205 ft | 110 kts | 63° |
| 2026-04-26 14:37 | 52.36283 | 5.33967 | 1152 ft | 107 kts | 64° |
| 2026-04-26 14:37 | 52.36599 | 5.35055 | 1106 ft | 106 kts | 63° |
| 2026-04-26 14:38 | 52.36912 | 5.36143 | 1059 ft | 106 kts | 63° |
| 2026-04-26 14:38 | 52.37301 | 5.37155 | 994 ft | 104 kts | 51° |
| 2026-04-26 14:38 | 52.37736 | 5.38087 | 942 ft | 104 kts | 52° |
| 2026-04-26 14:38 | 52.38170 | 5.39054 | 888 ft | 105 kts | 52° |
| 2026-04-26 14:39 | 52.38606 | 5.40017 | 844 ft | 107 kts | 50° |
| 2026-04-26 14:39 | 52.39093 | 5.40925 | 797 ft | 108 kts | 45° |
| 2026-04-26 14:39 | 52.39636 | 5.41773 | 712 ft | 108 kts | 36° |
| 2026-04-26 14:39 | 52.40238 | 5.42509 | 664 ft | 106 kts | 38° |
| 2026-04-26 14:40 | 52.40787 | 5.43306 | 635 ft | 106 kts | 41° |
| 2026-04-26 14:40 | 52.41324 | 5.44116 | 691 ft | 102 kts | 41° |
| 2026-04-26 14:40 | 52.41809 | 5.44977 | 725 ft | 102 kts | 46° |
| 2026-04-26 14:40 | 52.42251 | 5.45903 | 732 ft | 105 kts | 48° |
| 2026-04-26 14:41 | 52.42675 | 5.46800 | 795 ft | 92 kts | 48° |
| 2026-04-26 14:41 | 52.43086 | 5.47591 | 627 ft | 92 kts | 45° |
| 2026-04-26 14:41 | 52.43490 | 5.48355 | 376 ft | 86 kts | 46° |
| 2026-04-26 14:41 | 52.43909 | 5.49011 | 144 ft | 81 kts | 42° |
| 2026-04-26 14:42 | 52.44285 | 5.49618 | 20 ft | 74 kts | 45° |
| 2026-04-26 14:42 | 52.44624 | 5.50227 | 8 ft | 66 kts | 46° |
| 2026-04-26 14:42 | 52.44895 | 5.50692 | -9 ft | 48 kts | 47° |
| 2026-04-26 14:42 | 52.45059 | 5.50978 | -9 ft | 14 kts | 45° |
| 2026-04-26 14:43 | 52.45114 | 5.51080 | -9 ft | 10 kts | 59° |
| 2026-04-26 14:43 | 52.45106 | 5.51165 | -9 ft | 8 kts | 153° |
| 2026-04-26 14:43 | 52.45063 | 5.51201 | -9 ft | 14 kts | 132° |
| 2026-04-26 14:43 | 52.45028 | 5.51286 | -9 ft | 7 kts | 92° |
| 2026-04-26 14:44 | 52.45047 | 5.51342 | -9 ft | 5 kts | 44° |
| 2026-04-26 14:44 | 52.45076 | 5.51393 | -9 ft | 9 kts | 50° |
| 2026-04-26 14:44 | 52.45113 | 5.51456 | -9 ft | 7 kts | 46° |
| 2026-04-26 14:44 | 52.45153 | 5.51524 | -9 ft | 9 kts | 43° |
| 2026-04-26 14:45 | 52.45181 | 5.51577 | -9 ft | 0 kts | 53° |
| 2026-04-26 14:45 | 52.45189 | 5.51592 | -9 ft | 12 kts | 45° |
| 2026-04-26 14:45 | 52.45253 | 5.51728 | -9 ft | 13 kts | 44° |
| 2026-04-26 14:45 | 52.45305 | 5.51819 | -9 ft | 7 kts | 47° |
| 2026-04-26 14:46 | 52.45367 | 5.51927 | -9 ft | 12 kts | 46° |
| 2026-04-26 14:46 | 52.45397 | 5.51986 | -9 ft | 4 kts | 78° |
| 2026-04-26 14:46 | 52.45378 | 5.52026 | -10 ft | 4 kts | 131° |
| 2026-04-26 14:46 | 52.45376 | 5.52061 | -10 ft | 0 kts | 56° |